sensor_id;sensor_type;location;lat;lon;timestamp;P1;durP1;ratioP1;P2;durP2;ratioP2
70663;SDS011;58237;57.996;56.290;2023-08-24T00:02:00;5.78;;;1.80;;
70663;SDS011;58237;57.996;56.290;2023-08-24T00:04:25;3.53;;;1.55;;
70663;SDS011;58237;57.996;56.290;2023-08-24T00:06:51;3.90;;;1.60;;
70663;SDS011;58237;57.996;56.290;2023-08-24T00:09:17;3.75;;;1.50;;
70663;SDS011;58237;57.996;56.290;2023-08-24T00:11:42;5.68;;;2.10;;
70663;SDS011;58237;57.996;56.290;2023-08-24T00:14:08;4.28;;;1.50;;
70663;SDS011;58237;57.996;56.290;2023-08-24T00:16:34;4.07;;;1.70;;
70663;SDS011;58237;57.996;56.290;2023-08-24T00:18:59;4.20;;;1.60;;
70663;SDS011;58237;57.996;56.290;2023-08-24T00:21:25;4.88;;;2.05;;
70663;SDS011;58237;57.996;56.290;2023-08-24T00:23:51;3.95;;;1.80;;
70663;SDS011;58237;57.996;56.290;2023-08-24T00:26:17;4.82;;;2.08;;
70663;SDS011;58237;57.996;56.290;2023-08-24T00:28:42;4.72;;;1.73;;
70663;SDS011;58237;57.996;56.290;2023-08-24T00:31:08;4.05;;;1.67;;
70663;SDS011;58237;57.996;56.290;2023-08-24T00:33:34;3.28;;;1.48;;
70663;SDS011;58237;57.996;56.290;2023-08-24T00:36:00;4.20;;;1.40;;
70663;SDS011;58237;57.996;56.290;2023-08-24T00:38:26;4.60;;;1.75;;
70663;SDS011;58237;57.996;56.290;2023-08-24T00:40:51;4.05;;;1.65;;
70663;SDS011;58237;57.996;56.290;2023-08-24T00:43:19;5.80;;;1.88;;
70663;SDS011;58237;57.996;56.290;2023-08-24T00:45:49;4.88;;;1.80;;
70663;SDS011;58237;57.996;56.290;2023-08-24T00:48:15;4.55;;;1.80;;
70663;SDS011;58237;57.996;56.290;2023-08-24T00:50:40;5.00;;;1.95;;
70663;SDS011;58237;57.996;56.290;2023-08-24T00:53:06;4.10;;;1.50;;
70663;SDS011;58237;57.996;56.290;2023-08-24T00:55:31;5.65;;;1.90;;
70663;SDS011;58237;57.996;56.290;2023-08-24T00:57:58;5.22;;;2.10;;
70663;SDS011;58237;57.996;56.290;2023-08-24T01:00:24;2.83;;;1.30;;
70663;SDS011;58237;57.996;56.290;2023-08-24T01:02:49;3.33;;;1.40;;
70663;SDS011;58237;57.996;56.290;2023-08-24T01:05:15;3.97;;;1.60;;
70663;SDS011;58237;57.996;56.290;2023-08-24T01:07:40;3.40;;;1.27;;
70663;SDS011;58237;57.996;56.290;2023-08-24T01:10:06;4.07;;;1.17;;
70663;SDS011;58237;57.996;56.290;2023-08-24T01:15:05;4.13;;;1.33;;
70663;SDS011;58237;57.996;56.290;2023-08-24T01:17:33;3.00;;;1.30;;
70663;SDS011;58237;57.996;56.290;2023-08-24T01:19:59;3.58;;;1.40;;
70663;SDS011;58237;57.996;56.290;2023-08-24T01:24:54;2.45;;;1.00;;
70663;SDS011;58237;57.996;56.290;2023-08-24T01:27:25;2.67;;;1.20;;
70663;SDS011;58237;57.996;56.290;2023-08-24T01:29:51;3.50;;;1.27;;
70663;SDS011;58237;57.996;56.290;2023-08-24T01:32:18;4.18;;;1.48;;
70663;SDS011;58237;57.996;56.290;2023-08-24T01:34:43;3.60;;;1.42;;
70663;SDS011;58237;57.996;56.290;2023-08-24T01:37:08;2.72;;;1.35;;
70663;SDS011;58237;57.996;56.290;2023-08-24T01:40:17;4.05;;;1.50;;
70663;SDS011;58237;57.996;56.290;2023-08-24T01:42:23;4.25;;;1.77;;
70663;SDS011;58237;57.996;56.290;2023-08-24T01:44:54;3.85;;;1.70;;
70663;SDS011;58237;57.996;56.290;2023-08-24T01:47:23;4.60;;;1.77;;
70663;SDS011;58237;57.996;56.290;2023-08-24T01:49:50;4.57;;;1.70;;
70663;SDS011;58237;57.996;56.290;2023-08-24T01:52:16;3.92;;;1.40;;
70663;SDS011;58237;57.996;56.290;2023-08-24T01:54:42;4.00;;;1.58;;
70663;SDS011;58237;57.996;56.290;2023-08-24T01:57:08;4.82;;;1.65;;
70663;SDS011;58237;57.996;56.290;2023-08-24T01:59:33;5.57;;;2.03;;
70663;SDS011;58237;57.996;56.290;2023-08-24T02:01:59;6.55;;;2.58;;
70663;SDS011;58237;57.996;56.290;2023-08-24T02:04:25;6.65;;;2.70;;
70663;SDS011;58237;57.996;56.290;2023-08-24T02:06:50;5.97;;;2.33;;
70663;SDS011;58237;57.996;56.290;2023-08-24T02:09:16;5.95;;;2.20;;
70663;SDS011;58237;57.996;56.290;2023-08-24T02:11:41;6.60;;;2.65;;
70663;SDS011;58237;57.996;56.290;2023-08-24T02:14:06;5.43;;;2.30;;
70663;SDS011;58237;57.996;56.290;2023-08-24T02:16:35;5.95;;;2.45;;
70663;SDS011;58237;57.996;56.290;2023-08-24T02:19:01;6.72;;;3.10;;
70663;SDS011;58237;57.996;56.290;2023-08-24T02:21:26;5.35;;;2.00;;
70663;SDS011;58237;57.996;56.290;2023-08-24T02:23:52;3.80;;;1.80;;
70663;SDS011;58237;57.996;56.290;2023-08-24T02:26:18;6.05;;;2.00;;
70663;SDS011;58237;57.996;56.290;2023-08-24T02:28:43;5.22;;;2.03;;
70663;SDS011;58237;57.996;56.290;2023-08-24T02:31:09;6.22;;;2.10;;
70663;SDS011;58237;57.996;56.290;2023-08-24T02:33:35;4.32;;;1.67;;
70663;SDS011;58237;57.996;56.290;2023-08-24T02:36:01;4.97;;;1.95;;
70663;SDS011;58237;57.996;56.290;2023-08-24T02:38:26;5.05;;;1.80;;
70663;SDS011;58237;57.996;56.290;2023-08-24T02:41:01;6.90;;;2.22;;
70663;SDS011;58237;57.996;56.290;2023-08-24T02:43:27;5.28;;;1.95;;
70663;SDS011;58237;57.996;56.290;2023-08-24T02:45:53;4.90;;;1.92;;
70663;SDS011;58237;57.996;56.290;2023-08-24T02:48:18;5.43;;;1.90;;
70663;SDS011;58237;57.996;56.290;2023-08-24T02:50:47;5.95;;;1.85;;
70663;SDS011;58237;57.996;56.290;2023-08-24T02:53:12;4.10;;;1.45;;
70663;SDS011;58237;57.996;56.290;2023-08-24T02:55:38;4.13;;;1.85;;
70663;SDS011;58237;57.996;56.290;2023-08-24T02:58:04;4.80;;;1.85;;
70663;SDS011;58237;57.996;56.290;2023-08-24T03:00:29;4.22;;;1.70;;
70663;SDS011;58237;57.996;56.290;2023-08-24T03:02:55;5.03;;;1.85;;
70663;SDS011;58237;57.996;56.290;2023-08-24T03:05:20;4.43;;;1.80;;
70663;SDS011;58237;57.996;56.290;2023-08-24T03:07:46;7.43;;;1.90;;
70663;SDS011;58237;57.996;56.290;2023-08-24T03:10:11;5.40;;;2.30;;
70663;SDS011;58237;57.996;56.290;2023-08-24T03:12:37;4.82;;;1.98;;
70663;SDS011;58237;57.996;56.290;2023-08-24T03:15:03;5.63;;;2.05;;
70663;SDS011;58237;57.996;56.290;2023-08-24T03:17:29;4.65;;;1.80;;
70663;SDS011;58237;57.996;56.290;2023-08-24T03:19:54;7.85;;;2.88;;
70663;SDS011;58237;57.996;56.290;2023-08-24T03:22:20;5.40;;;2.10;;
70663;SDS011;58237;57.996;56.290;2023-08-24T03:24:45;5.25;;;1.85;;
70663;SDS011;58237;57.996;56.290;2023-08-24T03:27:11;4.15;;;1.63;;
70663;SDS011;58237;57.996;56.290;2023-08-24T03:29:36;5.05;;;1.80;;
70663;SDS011;58237;57.996;56.290;2023-08-24T03:32:02;3.70;;;1.63;;
70663;SDS011;58237;57.996;56.290;2023-08-24T03:34:27;4.60;;;1.63;;
70663;SDS011;58237;57.996;56.290;2023-08-24T03:36:56;4.57;;;1.70;;
70663;SDS011;58237;57.996;56.290;2023-08-24T03:39:22;5.40;;;1.70;;
70663;SDS011;58237;57.996;56.290;2023-08-24T03:41:47;5.38;;;1.85;;
70663;SDS011;58237;57.996;56.290;2023-08-24T03:44:13;5.95;;;2.20;;
70663;SDS011;58237;57.996;56.290;2023-08-24T03:46:38;4.78;;;2.50;;
70663;SDS011;58237;57.996;56.290;2023-08-24T03:49:04;6.18;;;2.75;;
70663;SDS011;58237;57.996;56.290;2023-08-24T03:51:29;8.68;;;5.00;;
70663;SDS011;58237;57.996;56.290;2023-08-24T03:53:55;6.65;;;3.25;;
70663;SDS011;58237;57.996;56.290;2023-08-24T03:56:20;7.70;;;2.95;;
70663;SDS011;58237;57.996;56.290;2023-08-24T03:58:46;8.23;;;3.80;;
70663;SDS011;58237;57.996;56.290;2023-08-24T04:01:11;7.55;;;3.25;;
70663;SDS011;58237;57.996;56.290;2023-08-24T04:03:37;5.88;;;2.60;;
70663;SDS011;58237;57.996;56.290;2023-08-24T04:06:02;9.07;;;3.60;;
70663;SDS011;58237;57.996;56.290;2023-08-24T04:08:28;6.97;;;3.10;;
70663;SDS011;58237;57.996;56.290;2023-08-24T04:10:53;5.03;;;2.15;;
70663;SDS011;58237;57.996;56.290;2023-08-24T04:13:19;7.43;;;3.08;;
70663;SDS011;58237;57.996;56.290;2023-08-24T04:15:44;5.95;;;2.53;;
70663;SDS011;58237;57.996;56.290;2023-08-24T04:18:10;9.10;;;3.17;;
70663;SDS011;58237;57.996;56.290;2023-08-24T04:20:36;6.30;;;2.47;;
70663;SDS011;58237;57.996;56.290;2023-08-24T04:23:02;5.97;;;2.60;;
70663;SDS011;58237;57.996;56.290;2023-08-24T04:25:27;4.80;;;2.05;;
70663;SDS011;58237;57.996;56.290;2023-08-24T04:27:54;5.15;;;2.15;;
70663;SDS011;58237;57.996;56.290;2023-08-24T04:30:20;4.57;;;1.90;;
70663;SDS011;58237;57.996;56.290;2023-08-24T04:32:47;3.85;;;1.75;;
70663;SDS011;58237;57.996;56.290;2023-08-24T04:35:12;5.22;;;1.90;;
70663;SDS011;58237;57.996;56.290;2023-08-24T04:37:38;5.15;;;2.00;;
70663;SDS011;58237;57.996;56.290;2023-08-24T04:40:04;4.57;;;1.90;;
70663;SDS011;58237;57.996;56.290;2023-08-24T04:42:29;4.05;;;1.50;;
70663;SDS011;58237;57.996;56.290;2023-08-24T04:44:55;3.95;;;1.58;;
70663;SDS011;58237;57.996;56.290;2023-08-24T04:47:20;4.45;;;1.80;;
70663;SDS011;58237;57.996;56.290;2023-08-24T04:49:46;6.78;;;2.35;;
70663;SDS011;58237;57.996;56.290;2023-08-24T04:52:11;5.45;;;2.20;;
70663;SDS011;58237;57.996;56.290;2023-08-24T04:54:37;6.07;;;2.50;;
70663;SDS011;58237;57.996;56.290;2023-08-24T04:57:02;6.25;;;3.05;;
70663;SDS011;58237;57.996;56.290;2023-08-24T04:59:28;5.38;;;2.17;;
70663;SDS011;58237;57.996;56.290;2023-08-24T05:01:53;4.60;;;2.10;;
70663;SDS011;58237;57.996;56.290;2023-08-24T05:04:19;4.35;;;2.10;;
70663;SDS011;58237;57.996;56.290;2023-08-24T05:06:44;5.45;;;2.15;;
70663;SDS011;58237;57.996;56.290;2023-08-24T05:09:10;4.72;;;2.10;;
70663;SDS011;58237;57.996;56.290;2023-08-24T05:11:35;6.45;;;2.65;;
70663;SDS011;58237;57.996;56.290;2023-08-24T05:14:01;6.00;;;3.30;;
70663;SDS011;58237;57.996;56.290;2023-08-24T05:16:26;7.30;;;2.58;;
70663;SDS011;58237;57.996;56.290;2023-08-24T05:18:53;7.85;;;3.50;;
70663;SDS011;58237;57.996;56.290;2023-08-24T05:21:18;5.80;;;3.00;;
70663;SDS011;58237;57.996;56.290;2023-08-24T05:23:44;5.63;;;2.55;;
70663;SDS011;58237;57.996;56.290;2023-08-24T05:26:09;10.15;;;3.08;;
70663;SDS011;58237;57.996;56.290;2023-08-24T05:28:35;9.48;;;3.80;;
70663;SDS011;58237;57.996;56.290;2023-08-24T05:31:00;12.35;;;4.18;;
70663;SDS011;58237;57.996;56.290;2023-08-24T05:33:26;7.68;;;3.25;;
70663;SDS011;58237;57.996;56.290;2023-08-24T05:35:52;8.50;;;3.50;;
70663;SDS011;58237;57.996;56.290;2023-08-24T05:38:18;7.07;;;2.45;;
70663;SDS011;58237;57.996;56.290;2023-08-24T05:40:45;6.13;;;2.97;;
70663;SDS011;58237;57.996;56.290;2023-08-24T05:43:11;8.93;;;3.50;;
70663;SDS011;58237;57.996;56.290;2023-08-24T05:45:37;10.55;;;4.35;;
70663;SDS011;58237;57.996;56.290;2023-08-24T05:48:04;6.63;;;3.15;;
70663;SDS011;58237;57.996;56.290;2023-08-24T05:50:30;11.40;;;2.60;;
70663;SDS011;58237;57.996;56.290;2023-08-24T05:52:55;9.15;;;3.65;;
70663;SDS011;58237;57.996;56.290;2023-08-24T05:55:22;8.50;;;3.80;;
70663;SDS011;58237;57.996;56.290;2023-08-24T05:57:47;6.13;;;3.33;;
70663;SDS011;58237;57.996;56.290;2023-08-24T06:00:16;7.32;;;3.08;;
70663;SDS011;58237;57.996;56.290;2023-08-24T06:02:42;6.15;;;3.25;;
70663;SDS011;58237;57.996;56.290;2023-08-24T06:05:07;6.43;;;3.17;;
70663;SDS011;58237;57.996;56.290;2023-08-24T06:07:33;5.32;;;2.20;;
70663;SDS011;58237;57.996;56.290;2023-08-24T06:09:59;5.43;;;2.60;;
70663;SDS011;58237;57.996;56.290;2023-08-24T06:12:24;5.20;;;2.15;;
70663;SDS011;58237;57.996;56.290;2023-08-24T06:14:50;5.07;;;2.40;;
70663;SDS011;58237;57.996;56.290;2023-08-24T06:17:15;5.85;;;2.85;;
70663;SDS011;58237;57.996;56.290;2023-08-24T06:19:41;6.10;;;2.88;;
70663;SDS011;58237;57.996;56.290;2023-08-24T06:22:06;6.28;;;2.63;;
70663;SDS011;58237;57.996;56.290;2023-08-24T06:24:32;6.20;;;2.55;;
70663;SDS011;58237;57.996;56.290;2023-08-24T06:26:57;5.13;;;2.45;;
70663;SDS011;58237;57.996;56.290;2023-08-24T06:29:23;4.63;;;2.10;;
70663;SDS011;58237;57.996;56.290;2023-08-24T06:31:48;5.90;;;2.40;;
70663;SDS011;58237;57.996;56.290;2023-08-24T06:34:14;5.82;;;2.65;;
70663;SDS011;58237;57.996;56.290;2023-08-24T06:36:39;5.30;;;2.55;;
70663;SDS011;58237;57.996;56.290;2023-08-24T06:39:05;6.13;;;2.60;;
70663;SDS011;58237;57.996;56.290;2023-08-24T06:41:36;7.03;;;3.50;;
70663;SDS011;58237;57.996;56.290;2023-08-24T06:44:02;6.57;;;2.97;;
70663;SDS011;58237;57.996;56.290;2023-08-24T06:46:28;4.95;;;2.40;;
70663;SDS011;58237;57.996;56.290;2023-08-24T06:48:54;6.85;;;2.83;;
70663;SDS011;58237;57.996;56.290;2023-08-24T06:51:19;10.32;;;3.50;;
70663;SDS011;58237;57.996;56.290;2023-08-24T06:53:45;5.90;;;2.35;;
70663;SDS011;58237;57.996;56.290;2023-08-24T06:56:12;5.35;;;2.60;;
70663;SDS011;58237;57.996;56.290;2023-08-24T06:58:39;4.60;;;2.10;;
70663;SDS011;58237;57.996;56.290;2023-08-24T07:01:04;4.80;;;2.40;;
70663;SDS011;58237;57.996;56.290;2023-08-24T07:03:31;6.63;;;3.50;;
70663;SDS011;58237;57.996;56.290;2023-08-24T07:05:58;5.80;;;2.80;;
70663;SDS011;58237;57.996;56.290;2023-08-24T07:08:24;4.45;;;2.20;;
70663;SDS011;58237;57.996;56.290;2023-08-24T07:10:49;5.85;;;2.33;;
70663;SDS011;58237;57.996;56.290;2023-08-24T07:13:15;5.25;;;2.60;;
70663;SDS011;58237;57.996;56.290;2023-08-24T07:15:40;5.32;;;2.50;;
70663;SDS011;58237;57.996;56.290;2023-08-24T07:18:05;7.20;;;2.83;;
70663;SDS011;58237;57.996;56.290;2023-08-24T07:20:32;5.30;;;2.20;;
70663;SDS011;58237;57.996;56.290;2023-08-24T07:22:58;4.50;;;2.03;;
70663;SDS011;58237;57.996;56.290;2023-08-24T07:25:24;4.47;;;2.00;;
70663;SDS011;58237;57.996;56.290;2023-08-24T07:27:49;4.60;;;2.00;;
70663;SDS011;58237;57.996;56.290;2023-08-24T07:30:15;5.18;;;2.17;;
70663;SDS011;58237;57.996;56.290;2023-08-24T07:32:40;5.03;;;1.83;;
70663;SDS011;58237;57.996;56.290;2023-08-24T07:35:07;5.20;;;2.35;;
70663;SDS011;58237;57.996;56.290;2023-08-24T07:37:32;4.82;;;2.28;;
70663;SDS011;58237;57.996;56.290;2023-08-24T07:39:58;4.78;;;2.13;;
70663;SDS011;58237;57.996;56.290;2023-08-24T07:42:23;4.55;;;2.13;;
70663;SDS011;58237;57.996;56.290;2023-08-24T07:44:49;4.90;;;2.00;;
70663;SDS011;58237;57.996;56.290;2023-08-24T07:47:15;5.72;;;2.65;;
70663;SDS011;58237;57.996;56.290;2023-08-24T07:49:41;4.72;;;2.40;;
70663;SDS011;58237;57.996;56.290;2023-08-24T07:52:10;5.00;;;2.35;;
70663;SDS011;58237;57.996;56.290;2023-08-24T07:54:36;3.85;;;1.85;;
70663;SDS011;58237;57.996;56.290;2023-08-24T07:57:01;4.40;;;2.00;;
70663;SDS011;58237;57.996;56.290;2023-08-24T07:59:27;4.85;;;1.98;;
70663;SDS011;58237;57.996;56.290;2023-08-24T08:01:52;5.55;;;2.10;;
70663;SDS011;58237;57.996;56.290;2023-08-24T08:04:18;3.72;;;1.60;;
70663;SDS011;58237;57.996;56.290;2023-08-24T08:06:43;3.55;;;1.60;;
70663;SDS011;58237;57.996;56.290;2023-08-24T08:09:09;4.00;;;2.00;;
70663;SDS011;58237;57.996;56.290;2023-08-24T08:11:34;4.65;;;2.35;;
70663;SDS011;58237;57.996;56.290;2023-08-24T08:14:00;4.80;;;1.98;;
70663;SDS011;58237;57.996;56.290;2023-08-24T08:16:25;5.95;;;2.67;;
70663;SDS011;58237;57.996;56.290;2023-08-24T08:18:51;4.72;;;2.60;;
70663;SDS011;58237;57.996;56.290;2023-08-24T08:21:17;5.15;;;2.00;;
70663;SDS011;58237;57.996;56.290;2023-08-24T08:23:45;3.75;;;1.70;;
70663;SDS011;58237;57.996;56.290;2023-08-24T08:26:11;4.82;;;2.10;;
70663;SDS011;58237;57.996;56.290;2023-08-24T08:28:37;5.90;;;2.15;;
70663;SDS011;58237;57.996;56.290;2023-08-24T08:31:02;4.90;;;1.92;;
70663;SDS011;58237;57.996;56.290;2023-08-24T08:33:29;4.93;;;1.80;;
70663;SDS011;58237;57.996;56.290;2023-08-24T08:35:54;3.78;;;1.77;;
70663;SDS011;58237;57.996;56.290;2023-08-24T08:38:20;4.45;;;1.98;;
70663;SDS011;58237;57.996;56.290;2023-08-24T08:40:55;3.60;;;1.90;;
70663;SDS011;58237;57.996;56.290;2023-08-24T08:43:21;3.83;;;1.65;;
70663;SDS011;58237;57.996;56.290;2023-08-24T08:45:46;9.75;;;2.05;;
70663;SDS011;58237;57.996;56.290;2023-08-24T08:48:12;3.15;;;1.50;;
70663;SDS011;58237;57.996;56.290;2023-08-24T08:50:38;4.15;;;1.77;;
70663;SDS011;58237;57.996;56.290;2023-08-24T08:53:03;5.95;;;2.28;;
70663;SDS011;58237;57.996;56.290;2023-08-24T08:55:29;3.80;;;1.85;;
70663;SDS011;58237;57.996;56.290;2023-08-24T08:57:56;3.58;;;1.70;;
70663;SDS011;58237;57.996;56.290;2023-08-24T09:00:23;4.80;;;1.80;;
70663;SDS011;58237;57.996;56.290;2023-08-24T09:02:49;3.53;;;1.95;;
70663;SDS011;58237;57.996;56.290;2023-08-24T09:05:16;2.95;;;1.50;;
70663;SDS011;58237;57.996;56.290;2023-08-24T09:07:42;4.47;;;1.30;;
70663;SDS011;58237;57.996;56.290;2023-08-24T09:10:08;3.35;;;1.75;;
70663;SDS011;58237;57.996;56.290;2023-08-24T09:12:34;3.25;;;1.65;;
70663;SDS011;58237;57.996;56.290;2023-08-24T09:14:59;5.68;;;2.03;;
70663;SDS011;58237;57.996;56.290;2023-08-24T09:17:25;4.65;;;1.65;;
70663;SDS011;58237;57.996;56.290;2023-08-24T09:19:51;4.82;;;1.60;;
70663;SDS011;58237;57.996;56.290;2023-08-24T09:22:17;4.22;;;1.77;;
70663;SDS011;58237;57.996;56.290;2023-08-24T09:24:42;3.35;;;1.50;;
70663;SDS011;58237;57.996;56.290;2023-08-24T09:27:16;3.28;;;1.30;;
70663;SDS011;58237;57.996;56.290;2023-08-24T09:29:42;3.63;;;1.98;;
70663;SDS011;58237;57.996;56.290;2023-08-24T09:32:08;3.17;;;1.60;;
70663;SDS011;58237;57.996;56.290;2023-08-24T09:34:33;7.15;;;3.28;;
70663;SDS011;58237;57.996;56.290;2023-08-24T09:36:59;5.25;;;1.85;;
70663;SDS011;58237;57.996;56.290;2023-08-24T09:39:24;4.20;;;1.65;;
70663;SDS011;58237;57.996;56.290;2023-08-24T09:41:50;3.08;;;1.35;;
70663;SDS011;58237;57.996;56.290;2023-08-24T09:44:19;4.15;;;1.40;;
70663;SDS011;58237;57.996;56.290;2023-08-24T09:46:44;3.55;;;1.40;;
70663;SDS011;58237;57.996;56.290;2023-08-24T09:49:10;3.22;;;1.50;;
70663;SDS011;58237;57.996;56.290;2023-08-24T09:51:37;2.88;;;1.40;;
70663;SDS011;58237;57.996;56.290;2023-08-24T09:54:07;4.00;;;1.90;;
70663;SDS011;58237;57.996;56.290;2023-08-24T09:56:36;3.03;;;1.55;;
70663;SDS011;58237;57.996;56.290;2023-08-24T09:59:12;3.13;;;1.30;;
70663;SDS011;58237;57.996;56.290;2023-08-24T10:01:42;6.10;;;1.50;;
70663;SDS011;58237;57.996;56.290;2023-08-24T10:04:09;4.10;;;1.30;;
70663;SDS011;58237;57.996;56.290;2023-08-24T10:06:34;3.78;;;1.48;;
70663;SDS011;58237;57.996;56.290;2023-08-24T10:09:02;4.25;;;1.80;;
70663;SDS011;58237;57.996;56.290;2023-08-24T10:11:30;4.22;;;1.35;;
70663;SDS011;58237;57.996;56.290;2023-08-24T10:16:32;2.72;;;1.20;;
70663;SDS011;58237;57.996;56.290;2023-08-24T10:18:59;4.30;;;1.30;;
70663;SDS011;58237;57.996;56.290;2023-08-24T10:21:25;3.00;;;1.40;;
70663;SDS011;58237;57.996;56.290;2023-08-24T10:23:52;3.67;;;1.77;;
70663;SDS011;58237;57.996;56.290;2023-08-24T10:26:19;3.67;;;1.70;;
70663;SDS011;58237;57.996;56.290;2023-08-24T10:28:45;2.92;;;1.38;;
70663;SDS011;58237;57.996;56.290;2023-08-24T10:31:11;3.90;;;1.60;;
70663;SDS011;58237;57.996;56.290;2023-08-24T10:33:37;3.72;;;1.42;;
70663;SDS011;58237;57.996;56.290;2023-08-24T10:36:06;3.13;;;1.50;;
70663;SDS011;58237;57.996;56.290;2023-08-24T10:38:34;4.75;;;2.00;;
70663;SDS011;58237;57.996;56.290;2023-08-24T10:41:03;2.67;;;1.45;;
70663;SDS011;58237;57.996;56.290;2023-08-24T10:43:36;4.25;;;1.70;;
70663;SDS011;58237;57.996;56.290;2023-08-24T10:46:02;4.50;;;1.70;;
70663;SDS011;58237;57.996;56.290;2023-08-24T10:53:39;6.75;;;1.73;;
70663;SDS011;58237;57.996;56.290;2023-08-24T10:56:14;4.85;;;1.80;;
70663;SDS011;58237;57.996;56.290;2023-08-24T10:58:40;3.78;;;1.60;;
70663;SDS011;58237;57.996;56.290;2023-08-24T11:01:06;3.90;;;1.63;;
70663;SDS011;58237;57.996;56.290;2023-08-24T11:03:32;7.05;;;2.03;;
70663;SDS011;58237;57.996;56.290;2023-08-24T11:06:00;4.75;;;1.73;;
70663;SDS011;58237;57.996;56.290;2023-08-24T11:08:44;3.97;;;1.60;;
70663;SDS011;58237;57.996;56.290;2023-08-24T11:11:20;3.25;;;1.20;;
70663;SDS011;58237;57.996;56.290;2023-08-24T11:16:48;3.10;;;1.48;;
70663;SDS011;58237;57.996;56.290;2023-08-24T11:19:14;5.95;;;1.30;;
70663;SDS011;58237;57.996;56.290;2023-08-24T11:21:41;5.07;;;1.48;;
70663;SDS011;58237;57.996;56.290;2023-08-24T11:24:06;3.97;;;1.13;;
70663;SDS011;58237;57.996;56.290;2023-08-24T11:26:33;4.38;;;1.30;;
70663;SDS011;58237;57.996;56.290;2023-08-24T11:28:59;3.17;;;1.10;;
70663;SDS011;58237;57.996;56.290;2023-08-24T11:31:25;5.15;;;1.30;;
70663;SDS011;58237;57.996;56.290;2023-08-24T11:33:53;2.47;;;1.13;;
70663;SDS011;58237;57.996;56.290;2023-08-24T11:36:22;3.88;;;1.30;;
70663;SDS011;58237;57.996;56.290;2023-08-24T11:38:51;3.80;;;1.20;;
70663;SDS011;58237;57.996;56.290;2023-08-24T11:41:17;2.95;;;1.00;;
70663;SDS011;58237;57.996;56.290;2023-08-24T11:43:44;2.28;;;1.08;;
70663;SDS011;58237;57.996;56.290;2023-08-24T11:46:10;3.03;;;1.27;;
70663;SDS011;58237;57.996;56.290;2023-08-24T11:48:35;3.33;;;1.42;;
70663;SDS011;58237;57.996;56.290;2023-08-24T11:51:02;3.60;;;1.52;;
70663;SDS011;58237;57.996;56.290;2023-08-24T11:53:28;2.97;;;1.65;;
70663;SDS011;58237;57.996;56.290;2023-08-24T11:55:54;3.58;;;1.20;;
70663;SDS011;58237;57.996;56.290;2023-08-24T11:58:20;3.85;;;1.20;;
70663;SDS011;58237;57.996;56.290;2023-08-24T12:00:45;3.35;;;1.50;;
70663;SDS011;58237;57.996;56.290;2023-08-24T12:03:12;2.92;;;1.20;;
70663;SDS011;58237;57.996;56.290;2023-08-24T12:05:37;2.63;;;1.27;;
70663;SDS011;58237;57.996;56.290;2023-08-24T12:08:03;5.97;;;1.40;;
70663;SDS011;58237;57.996;56.290;2023-08-24T12:10:29;2.60;;;1.00;;
70663;SDS011;58237;57.996;56.290;2023-08-24T12:13:04;3.58;;;0.90;;
70663;SDS011;58237;57.996;56.290;2023-08-24T12:15:35;2.05;;;0.93;;
70663;SDS011;58237;57.996;56.290;2023-08-24T12:18:11;3.33;;;0.98;;
70663;SDS011;58237;57.996;56.290;2023-08-24T12:20:37;2.65;;;1.30;;
70663;SDS011;58237;57.996;56.290;2023-08-24T12:23:03;2.72;;;1.40;;
70663;SDS011;58237;57.996;56.290;2023-08-24T12:25:28;4.47;;;1.55;;
70663;SDS011;58237;57.996;56.290;2023-08-24T12:28:10;2.40;;;1.10;;
70663;SDS011;58237;57.996;56.290;2023-08-24T12:33:20;3.58;;;1.00;;
70663;SDS011;58237;57.996;56.290;2023-08-24T12:35:46;3.17;;;0.90;;
70663;SDS011;58237;57.996;56.290;2023-08-24T12:38:11;2.33;;;1.00;;
70663;SDS011;58237;57.996;56.290;2023-08-24T12:40:37;2.17;;;1.05;;
70663;SDS011;58237;57.996;56.290;2023-08-24T12:43:02;2.75;;;1.10;;
70663;SDS011;58237;57.996;56.290;2023-08-24T12:45:28;4.07;;;1.10;;
70663;SDS011;58237;57.996;56.290;2023-08-24T12:47:53;6.38;;;1.33;;
70663;SDS011;58237;57.996;56.290;2023-08-24T12:50:19;1.90;;;0.90;;
70663;SDS011;58237;57.996;56.290;2023-08-24T12:52:44;2.00;;;0.73;;
70663;SDS011;58237;57.996;56.290;2023-08-24T12:55:10;2.33;;;1.10;;
70663;SDS011;58237;57.996;56.290;2023-08-24T12:57:35;3.28;;;0.93;;
70663;SDS011;58237;57.996;56.290;2023-08-24T13:00:01;2.20;;;0.70;;
70663;SDS011;58237;57.996;56.290;2023-08-24T13:02:27;3.00;;;1.00;;
70663;SDS011;58237;57.996;56.290;2023-08-24T13:04:52;1.40;;;0.68;;
70663;SDS011;58237;57.996;56.290;2023-08-24T13:07:17;2.70;;;0.80;;
70663;SDS011;58237;57.996;56.290;2023-08-24T13:09:43;2.00;;;0.95;;
70663;SDS011;58237;57.996;56.290;2023-08-24T13:12:08;2.33;;;1.00;;
70663;SDS011;58237;57.996;56.290;2023-08-24T13:14:34;2.17;;;0.98;;
70663;SDS011;58237;57.996;56.290;2023-08-24T13:16:59;2.03;;;0.80;;
70663;SDS011;58237;57.996;56.290;2023-08-24T13:19:25;2.65;;;1.00;;
70663;SDS011;58237;57.996;56.290;2023-08-24T13:21:50;2.88;;;1.17;;
70663;SDS011;58237;57.996;56.290;2023-08-24T13:24:16;3.72;;;1.20;;
70663;SDS011;58237;57.996;56.290;2023-08-24T13:26:41;2.47;;;1.00;;
70663;SDS011;58237;57.996;56.290;2023-08-24T13:29:07;3.53;;;1.10;;
70663;SDS011;58237;57.996;56.290;2023-08-24T13:31:32;2.75;;;1.10;;
70663;SDS011;58237;57.996;56.290;2023-08-24T13:33:58;3.00;;;0.88;;
70663;SDS011;58237;57.996;56.290;2023-08-24T13:36:23;1.92;;;0.73;;
70663;SDS011;58237;57.996;56.290;2023-08-24T13:38:49;2.33;;;0.73;;
70663;SDS011;58237;57.996;56.290;2023-08-24T13:41:15;1.83;;;0.93;;
70663;SDS011;58237;57.996;56.290;2023-08-24T13:43:40;2.08;;;0.82;;
70663;SDS011;58237;57.996;56.290;2023-08-24T13:46:07;2.50;;;0.90;;
70663;SDS011;58237;57.996;56.290;2023-08-24T13:48:32;2.90;;;0.88;;
70663;SDS011;58237;57.996;56.290;2023-08-24T13:51:01;2.50;;;1.25;;
70663;SDS011;58237;57.996;56.290;2023-08-24T13:53:26;2.03;;;0.80;;
70663;SDS011;58237;57.996;56.290;2023-08-24T13:55:52;1.98;;;0.95;;
70663;SDS011;58237;57.996;56.290;2023-08-24T13:58:17;1.63;;;0.80;;
70663;SDS011;58237;57.996;56.290;2023-08-24T14:00:42;1.75;;;0.90;;
70663;SDS011;58237;57.996;56.290;2023-08-24T14:03:09;2.35;;;1.00;;
70663;SDS011;58237;57.996;56.290;2023-08-24T14:05:38;3.75;;;1.17;;
70663;SDS011;58237;57.996;56.290;2023-08-24T14:08:03;1.85;;;0.75;;
70663;SDS011;58237;57.996;56.290;2023-08-24T14:10:29;3.13;;;1.10;;
70663;SDS011;58237;57.996;56.290;2023-08-24T14:12:55;2.78;;;1.08;;
70663;SDS011;58237;57.996;56.290;2023-08-24T14:15:20;3.30;;;1.23;;
70663;SDS011;58237;57.996;56.290;2023-08-24T14:17:46;3.70;;;1.20;;
70663;SDS011;58237;57.996;56.290;2023-08-24T14:20:11;2.88;;;1.17;;
70663;SDS011;58237;57.996;56.290;2023-08-24T14:22:38;3.38;;;1.23;;
70663;SDS011;58237;57.996;56.290;2023-08-24T14:25:04;2.90;;;1.08;;
70663;SDS011;58237;57.996;56.290;2023-08-24T14:27:29;2.58;;;1.08;;
70663;SDS011;58237;57.996;56.290;2023-08-24T14:29:55;1.88;;;1.00;;
70663;SDS011;58237;57.996;56.290;2023-08-24T14:32:20;1.90;;;0.80;;
70663;SDS011;58237;57.996;56.290;2023-08-24T14:34:48;3.15;;;1.00;;
70663;SDS011;58237;57.996;56.290;2023-08-24T14:37:13;2.45;;;0.90;;
70663;SDS011;58237;57.996;56.290;2023-08-24T14:39:39;2.42;;;0.82;;
70663;SDS011;58237;57.996;56.290;2023-08-24T14:42:04;2.83;;;1.00;;
70663;SDS011;58237;57.996;56.290;2023-08-24T14:44:31;2.60;;;0.90;;
70663;SDS011;58237;57.996;56.290;2023-08-24T14:46:56;4.10;;;0.90;;